Time;durP1;ratioP1;P1;durP2;ratioP2;P2;SDS_P1;SDS_P2;PMS_P1;PMS_P2;Temp;Humidity;BMP_temperature;BMP_pressure;BME280_temperature;BME280_humidity;BME280_pressure;Samples;Min_cycle;Max_cycle;Signal;HPM_P1;HPM_P2
2023/01/03 00:01:45;;;;;;;2.47;1.70;;;17.90;58.20;;;;;;5051514;28;20691;-63
2023/01/03 00:04:11;;;;;;;2.17;1.83;;;17.90;58.20;;;;;;5052265;28;20206;-63
2023/01/03 00:06:43;;;;;;;2.05;1.85;;;17.90;58.20;;;;;;5052136;28;20175;-62
2023/01/03 00:09:10;;;;;;;1.65;1.55;;;17.90;58.30;;;;;;5051582;28;20179;-62
2023/01/03 00:14:24;;;;;;;1.80;1.70;;;17.80;58.30;;;;;;5055414;28;20178;-62
2023/01/03 00:16:51;;;;;;;1.73;1.40;;;17.80;58.30;;;;;;5055691;28;20189;-62
2023/01/03 00:19:16;;;;;;;1.70;1.60;;;17.80;58.30;;;;;;5055989;28;20258;-63
2023/01/03 00:21:42;;;;;;;3.17;2.03;;;17.80;58.30;;;;;;5054881;28;20266;-62
2023/01/03 00:24:08;;;;;;;2.55;1.88;;;17.80;58.30;;;;;;5055883;28;20209;-62
2023/01/03 00:26:36;;;;;;;1.83;1.73;;;17.70;58.30;;;;;;5055578;28;20740;-62
2023/01/03 00:29:01;;;;;;;2.40;2.20;;;17.70;58.30;;;;;;5055200;28;20198;-62
2023/01/03 00:31:27;;;;;;;2.22;1.65;;;17.70;58.40;;;;;;5055827;28;20677;-62
2023/01/03 00:33:52;;;;;;;1.77;1.65;;;17.70;58.40;;;;;;5055455;28;20171;-62
2023/01/03 00:36:18;;;;;;;2.58;1.75;;;17.70;58.30;;;;;;5054959;28;20180;-63
2023/01/03 00:38:43;;;;;;;2.10;2.00;;;17.70;58.40;;;;;;5055529;28;20622;-63
2023/01/03 00:41:14;;;;;;;2.20;2.00;;;17.70;58.40;;;;;;5056015;28;20179;-63
2023/01/03 00:43:41;;;;;;;1.83;1.73;;;17.60;58.40;;;;;;5054625;28;20171;-64
2023/01/03 00:46:07;;;;;;;2.33;1.85;;;17.60;58.40;;;;;;5055397;28;20633;-63
2023/01/03 00:48:33;;;;;;;3.10;2.25;;;17.60;58.40;;;;;;5055120;28;20194;-62
2023/01/03 00:51:25;;;;;;;2.33;1.92;;;17.60;58.40;;;;;;5054559;28;20267;-62
2023/01/03 00:53:56;;;;;;;2.00;1.80;;;17.60;58.40;;;;;;5054080;28;20195;-62
2023/01/03 00:56:24;;;;;;;3.00;2.00;;;17.60;58.40;;;;;;5055512;28;20175;-62
2023/01/03 00:58:49;;;;;;;2.08;1.80;;;17.60;58.40;;;;;;5054451;28;20179;-62
2023/01/03 01:01:23;;;;;;;3.28;2.05;;;17.60;58.40;;;;;;5055152;28;20293;-62
2023/01/03 01:03:50;;;;;;;2.17;1.88;;;17.60;58.40;;;;;;5054307;28;20638;-63
2023/01/03 01:06:24;;;;;;;2.10;1.90;;;17.50;58.40;;;;;;5055295;28;20183;-62
2023/01/03 01:08:50;;;;;;;2.35;2.05;;;17.50;58.40;;;;;;5054883;28;20202;-62
2023/01/03 01:11:16;;;;;;;2.08;1.92;;;17.50;58.40;;;;;;5054267;28;20206;-62
2023/01/03 01:13:42;;;;;;;2.00;1.90;;;17.50;58.40;;;;;;5054558;28;20168;-62
2023/01/03 01:16:14;;;;;;;2.97;1.90;;;17.50;58.40;;;;;;5055228;28;20183;-63
2023/01/03 01:18:41;;;;;;;1.70;1.60;;;17.50;58.40;;;;;;5052630;28;20226;-62
2023/01/03 01:21:09;;;;;;;2.03;1.80;;;17.50;58.40;;;;;;5055107;28;20184;-63
2023/01/03 01:23:36;;;;;;;4.28;2.03;;;17.50;58.40;;;;;;5054244;28;20209;-62
2023/01/03 01:26:02;;;;;;;4.10;2.28;;;17.50;58.40;;;;;;5054083;28;20596;-62
2023/01/03 01:28:27;;;;;;;2.00;1.67;;;17.40;58.30;;;;;;5054590;28;20257;-62
2023/01/03 01:30:53;;;;;;;2.10;1.90;;;17.40;58.30;;;;;;5054368;28;20221;-62
2023/01/03 01:33:18;;;;;;;2.00;1.85;;;17.40;58.30;;;;;;5054039;28;20262;-63
2023/01/03 01:35:44;;;;;;;2.20;1.85;;;17.40;58.30;;;;;;5054470;28;20248;-63
2023/01/03 01:38:09;;;;;;;2.35;1.80;;;17.40;58.30;;;;;;5054673;28;20572;-63
2023/01/03 01:40:35;;;;;;;3.03;2.10;;;17.40;58.30;;;;;;5053546;28;20636;-63
2023/01/03 01:46:27;;;;;;;3.33;2.22;;;17.40;58.40;;;;;;5051721;28;20617;-62
2023/01/03 01:48:58;;;;;;;2.53;1.85;;;17.40;58.30;;;;;;5052816;28;20708;-62
2023/01/03 01:51:23;;;;;;;2.17;1.88;;;17.40;58.30;;;;;;5053211;28;20277;-62
2023/01/03 01:53:49;;;;;;;1.95;1.75;;;17.30;58.30;;;;;;5052332;28;20175;-62
2023/01/03 01:56:18;;;;;;;1.90;1.80;;;17.30;58.30;;;;;;5053165;28;20536;-62
2023/01/03 01:58:44;;;;;;;2.20;2.00;;;17.30;58.30;;;;;;5052744;28;20171;-62
2023/01/03 02:01:12;;;;;;;2.40;1.70;;;17.40;58.30;;;;;;5052252;28;20183;-62
2023/01/03 02:03:38;;;;;;;2.47;2.08;;;17.30;58.30;;;;;;5053698;28;20195;-63
2023/01/03 02:06:04;;;;;;;2.25;2.10;;;17.30;58.30;;;;;;5053064;28;20175;-63
2023/01/03 02:08:30;;;;;;;2.10;1.90;;;17.30;58.30;;;;;;5052404;28;20506;-62
2023/01/03 02:10:58;;;;;;;1.80;1.70;;;17.30;58.30;;;;;;5053789;28;20217;-62
2023/01/03 02:13:57;;;;;;;2.00;1.90;;;17.30;58.30;;;;;;5053910;28;20174;-62
2023/01/03 02:16:49;;;;;;;3.47;2.33;;;17.30;58.30;;;;;;5052543;28;20718;-62
2023/01/03 02:19:51;;;;;;;2.05;1.90;;;17.30;58.30;;;;;;5052701;28;20282;-64
2023/01/03 02:22:52;;;;;;;1.98;1.80;;;17.20;58.20;;;;;;5051925;28;20206;-63
2023/01/03 02:25:23;;;;;;;2.05;1.92;;;17.20;58.20;;;;;;5052476;28;20558;-62
2023/01/03 02:28:19;;;;;;;2.75;2.08;;;17.20;58.30;;;;;;5052359;28;20186;-62
2023/01/03 02:30:49;;;;;;;2.20;2.00;;;17.20;58.20;;;;;;5053118;28;20218;-62
2023/01/03 02:33:36;;;;;;;2.40;1.92;;;17.20;58.20;;;;;;5052058;28;20182;-62
2023/01/03 02:36:11;;;;;;;2.00;1.80;;;17.20;58.20;;;;;;5052779;28;20174;-63
2023/01/03 02:38:53;;;;;;;3.10;1.80;;;17.20;58.20;;;;;;5051987;28;20253;-63
2023/01/03 02:41:37;;;;;;;2.05;1.80;;;17.20;58.30;;;;;;5052173;28;20206;-63
2023/01/03 02:44:35;;;;;;;1.52;1.42;;;17.20;58.20;;;;;;5052541;28;20596;-63
2023/01/03 02:47:08;;;;;;;2.08;1.85;;;17.20;58.20;;;;;;5052263;28;20206;-63
2023/01/03 02:49:36;;;;;;;2.50;2.05;;;17.20;58.20;;;;;;5050890;28;20183;-62
2023/01/03 02:52:04;;;;;;;2.72;2.20;;;17.10;58.20;;;;;;5052193;28;20187;-62
2023/01/03 02:54:49;;;;;;;2.28;2.08;;;17.10;58.20;;;;;;5052168;28;20254;-62
2023/01/03 02:57:17;;;;;;;2.15;1.73;;;17.20;58.20;;;;;;5051197;28;20179;-63
2023/01/03 02:59:45;;;;;;;1.80;1.60;;;17.10;58.10;;;;;;5051527;28;20175;-62
2023/01/03 03:02:11;;;;;;;2.47;1.80;;;17.10;58.20;;;;;;5052200;28;20175;-62
2023/01/03 03:04:37;;;;;;;3.13;2.10;;;17.10;58.20;;;;;;5051099;28;20291;-62
2023/01/03 03:07:18;;;;;;;2.42;2.22;;;17.10;58.10;;;;;;5052869;28;20700;-64
2023/01/03 03:15:16;;;;;;;3.20;2.30;;;17.10;58.10;;;;;;5051613;28;20609;-62
2023/01/03 03:17:41;;;;;;;2.15;1.75;;;17.10;58.20;;;;;;5050483;28;20251;-62
2023/01/03 03:25:46;;;;;;;2.05;1.95;;;17.10;58.20;;;;;;5050866;28;20181;-61
2023/01/03 03:28:34;;;;;;;2.50;2.25;;;17.10;58.10;;;;;;5051475;28;20305;-61
2023/01/03 03:31:16;;;;;;;2.05;1.90;;;17.10;58.10;;;;;;5051707;28;20737;-61
2023/01/03 03:33:51;;;;;;;1.75;1.65;;;17.00;58.10;;;;;;5051476;28;20201;-61
2023/01/03 03:36:38;;;;;;;2.30;2.08;;;17.10;58.20;;;;;;5051651;28;20182;-62
2023/01/03 03:39:03;;;;;;;2.85;2.30;;;17.00;58.10;;;;;;5051889;28;20170;-62
2023/01/03 03:47:44;;;;;;;2.53;2.33;;;17.00;58.10;;;;;;5055040;28;20587;-61
2023/01/03 03:50:31;;;;;;;2.30;2.20;;;17.00;58.10;;;;;;5056421;28;20715;-62
2023/01/03 03:52:58;;;;;;;2.33;2.15;;;17.00;58.00;;;;;;5054908;28;20182;-61
2023/01/03 03:55:38;;;;;;;2.20;1.95;;;17.00;58.00;;;;;;5055433;28;20266;-61
2023/01/03 03:58:06;;;;;;;2.53;2.10;;;17.00;58.00;;;;;;5055252;28;20230;-61
2023/01/03 04:00:33;;;;;;;2.20;2.00;;;17.00;58.00;;;;;;5054145;28;20208;-61
2023/01/03 04:02:59;;;;;;;2.17;2.08;;;17.00;58.00;;;;;;5055648;28;20205;-61
2023/01/03 04:05:26;;;;;;;2.55;2.33;;;17.00;58.00;;;;;;5056494;28;20277;-61
2023/01/03 04:07:51;;;;;;;2.17;2.08;;;17.00;58.00;;;;;;5054165;28;20199;-61
2023/01/03 04:10:19;;;;;;;2.35;2.20;;;17.00;58.00;;;;;;5056033;28;20677;-61
2023/01/03 04:12:46;;;;;;;2.40;2.20;;;16.90;58.00;;;;;;5054759;28;20210;-61
2023/01/03 04:15:12;;;;;;;3.08;2.30;;;16.90;58.00;;;;;;5055445;28;20179;-61
2023/01/03 04:17:38;;;;;;;1.90;1.80;;;16.90;58.10;;;;;;5055468;28;20230;-61
2023/01/03 04:20:03;;;;;;;2.10;1.90;;;16.90;58.00;;;;;;5055983;28;20183;-61
2023/01/03 04:22:29;;;;;;;2.00;1.90;;;16.90;58.00;;;;;;5055289;28;20183;-61
2023/01/03 04:24:54;;;;;;;2.65;2.40;;;16.90;58.00;;;;;;5055505;28;20179;-62
2023/01/03 04:27:20;;;;;;;2.25;2.05;;;17.00;58.10;;;;;;5055846;28;20174;-62
2023/01/03 04:29:46;;;;;;;2.70;2.50;;;16.90;58.00;;;;;;5054741;28;20189;-61
2023/01/03 04:32:11;;;;;;;2.47;2.05;;;16.90;58.00;;;;;;5055959;28;20189;-61
2023/01/03 04:34:39;;;;;;;2.10;2.00;;;16.90;58.00;;;;;;5054790;28;20167;-65
2023/01/03 04:37:05;;;;;;;2.22;2.00;;;16.90;58.00;;;;;;5055702;28;20591;-62
2023/01/03 04:39:30;;;;;;;2.70;2.50;;;16.90;57.90;;;;;;5055294;28;20214;-62
2023/01/03 04:41:56;;;;;;;2.45;2.25;;;16.90;57.90;;;;;;5054918;28;20218;-62
2023/01/03 04:44:21;;;;;;;2.97;2.25;;;16.90;58.00;;;;;;5055746;28;20278;-62
2023/01/03 04:46:47;;;;;;;2.40;2.13;;;16.90;58.20;;;;;;5055460;28;20258;-61
2023/01/03 04:49:13;;;;;;;2.38;2.17;;;16.90;58.00;;;;;;5054885;28;20259;-61
2023/01/03 04:51:38;;;;;;;2.28;2.08;;;16.90;58.00;;;;;;5055019;28;20214;-61
2023/01/03 04:54:04;;;;;;;2.10;2.00;;;16.90;58.00;;;;;;5055292;28;20171;-61
2023/01/03 04:56:31;;;;;;;2.35;2.15;;;16.80;57.90;;;;;;5053858;28;20179;-61
2023/01/03 04:58:57;;;;;;;2.50;2.30;;;16.90;57.90;;;;;;5055469;28;20183;-61
2023/01/03 05:01:22;;;;;;;2.45;2.22;;;16.80;57.90;;;;;;5055362;28;20183;-61
2023/01/03 05:03:48;;;;;;;2.40;2.03;;;16.80;57.90;;;;;;5054323;28;20178;-61
2023/01/03 05:06:14;;;;;;;2.33;2.15;;;16.80;57.90;;;;;;5055286;28;20187;-62
2023/01/03 05:08:39;;;;;;;2.45;2.25;;;16.80;57.90;;;;;;5054854;28;20645;-62
2023/01/03 05:11:05;;;;;;;2.10;1.90;;;16.80;57.80;;;;;;5054365;28;20572;-61
2023/01/03 05:13:31;;;;;;;2.83;2.35;;;16.80;57.90;;;;;;5054897;28;20536;-61
2023/01/03 05:16:05;;;;;;;2.75;2.22;;;16.80;57.90;;;;;;5055224;28;20171;-61
2023/01/03 05:18:30;;;;;;;2.60;2.40;;;16.80;57.80;;;;;;5052803;28;20372;-61
2023/01/03 05:26:24;;;;;;;1.88;1.77;;;16.80;58.00;;;;;;5055050;28;20648;-61
2023/01/03 05:28:51;;;;;;;2.70;2.05;;;16.70;57.90;;;;;;5054385;28;20179;-61
2023/01/03 05:31:16;;;;;;;1.98;1.88;;;16.70;57.90;;;;;;5054165;28;20223;-61
2023/01/03 05:33:42;;;;;;;2.60;2.40;;;16.80;58.00;;;;;;5054494;28;20195;-61
2023/01/03 05:36:08;;;;;;;2.20;1.95;;;16.70;58.00;;;;;;5054672;28;20168;-62
2023/01/03 05:38:33;;;;;;;2.10;1.92;;;16.70;57.90;;;;;;5053750;28;20204;-62
2023/01/03 05:40:59;;;;;;;2.13;1.98;;;16.70;57.90;;;;;;5054712;28;20652;-62
2023/01/03 05:43:24;;;;;;;2.00;1.90;;;16.70;58.00;;;;;;5054647;28;20606;-62
2023/01/03 05:45:50;;;;;;;2.22;2.03;;;16.70;58.00;;;;;;5053546;28;20537;-62
2023/01/03 05:48:16;;;;;;;1.95;1.75;;;16.70;58.00;;;;;;5054395;28;20179;-62
2023/01/03 05:50:42;;;;;;;2.35;2.15;;;16.70;58.20;;;;;;5053893;28;20211;-62
2023/01/03 05:53:07;;;;;;;2.25;2.05;;;16.70;58.00;;;;;;5053728;28;20179;-63
2023/01/03 05:55:35;;;;;;;2.20;1.98;;;16.70;58.00;;;;;;5054304;28;20229;-62
2023/01/03 05:58:00;;;;;;;2.47;2.28;;;16.70;58.00;;;;;;5054270;28;20695;-61
2023/01/03 06:00:26;;;;;;;2.53;2.10;;;16.70;58.00;;;;;;5053436;28;20167;-62
2023/01/03 06:02:51;;;;;;;2.03;1.92;;;16.70;58.00;;;;;;5052562;28;20171;-62
2023/01/03 06:05:17;;;;;;;2.15;1.90;;;16.70;58.00;;;;;;5054007;28;20171;-63
2023/01/03 06:07:43;;;;;;;1.98;1.88;;;16.70;58.00;;;;;;5053003;28;20179;-62
2023/01/03 06:10:09;;;;;;;2.35;2.15;;;16.70;58.00;;;;;;5053278;28;20199;-62
2023/01/03 06:12:34;;;;;;;2.03;1.92;;;16.70;58.00;;;;;;5053733;28;20261;-61
2023/01/03 06:15:00;;;;;;;2.75;2.05;;;16.70;58.10;;;;;;5053249;28;20170;-61
2023/01/03 06:20:09;;;;;;;2.25;2.05;;;16.60;58.00;;;;;;5053050;28;20182;-62
2023/01/03 06:22:35;;;;;;;2.08;1.98;;;16.60;58.00;;;;;;5053408;28;20171;-62
2023/01/03 06:25:00;;;;;;;2.00;1.90;;;16.60;58.00;;;;;;5053694;28;20277;-62
2023/01/03 06:27:26;;;;;;;2.20;2.10;;;16.60;58.00;;;;;;5052821;28;20213;-62
2023/01/03 06:29:51;;;;;;;1.83;1.73;;;16.60;58.00;;;;;;5053344;28;20175;-63
2023/01/03 06:32:17;;;;;;;1.77;1.67;;;16.60;58.00;;;;;;5053727;28;20190;-63
2023/01/03 06:34:42;;;;;;;1.80;1.70;;;16.60;58.00;;;;;;5052582;28;20174;-63
2023/01/03 06:37:08;;;;;;;2.35;2.15;;;16.60;58.00;;;;;;5053687;28;20182;-64
2023/01/03 06:39:34;;;;;;;2.28;2.08;;;16.60;58.00;;;;;;5053321;28;20178;-64
2023/01/03 06:42:38;;;;;;;1.80;1.70;;;16.60;58.00;;;;;;5052610;28;20177;-65
2023/01/03 06:53:10;;;;;;;1.90;1.80;;;16.60;58.00;;;;;;5052879;28;20261;-62
2023/01/03 06:53:11;;;;;;;1.70;1.60;;;16.60;58.00;;;;;;5053264;28;20217;-60
2023/01/03 06:55:37;;;;;;;2.20;2.00;;;16.60;58.00;;;;;;5051197;28;20189;-61
2023/01/03 06:58:02;;;;;;;2.38;2.17;;;16.50;58.00;;;;;;5053242;28;20542;-61
2023/01/03 07:00:28;;;;;;;2.20;2.10;;;16.50;58.00;;;;;;5053155;28;20175;-61
2023/01/03 07:02:53;;;;;;;2.22;2.03;;;16.50;58.00;;;;;;5052102;28;20171;-61
2023/01/03 07:05:19;;;;;;;1.83;1.73;;;16.50;58.00;;;;;;5052988;28;20637;-61
2023/01/03 07:07:44;;;;;;;2.75;2.00;;;16.50;58.00;;;;;;5052686;28;20179;-61
2023/01/03 07:10:10;;;;;;;1.80;1.70;;;16.50;58.00;;;;;;5052407;28;20289;-61
2023/01/03 07:15:20;;;;;;;2.65;1.80;;;16.50;58.00;;;;;;5052914;28;20570;-60
2023/01/03 07:17:45;;;;;;;2.25;2.05;;;16.50;58.00;;;;;;5051694;28;20223;-61
2023/01/03 07:20:11;;;;;;;1.95;1.85;;;16.50;58.00;;;;;;5052580;28;20179;-61
2023/01/03 07:22:36;;;;;;;2.78;2.08;;;16.50;58.00;;;;;;5052476;28;20175;-62
2023/01/03 07:25:02;;;;;;;2.20;2.10;;;16.50;58.00;;;;;;5052194;28;20178;-62
2023/01/03 07:27:27;;;;;;;2.10;1.80;;;16.50;58.00;;;;;;5052956;28;20175;-61
2023/01/03 07:29:53;;;;;;;1.83;1.73;;;16.50;58.00;;;;;;5052541;28;20171;-61
2023/01/03 07:32:18;;;;;;;2.03;1.90;;;16.50;58.00;;;;;;5051947;28;20205;-61
2023/01/03 07:34:44;;;;;;;2.47;1.98;;;16.50;58.00;;;;;;5052477;28;20213;-62
2023/01/03 07:37:09;;;;;;;3.50;2.00;;;16.50;58.00;;;;;;5052535;28;20171;-71
2023/01/03 07:39:35;;;;;;;2.28;2.08;;;16.50;58.30;;;;;;5051781;28;20175;-71
2023/01/03 07:44:44;;;;;;;4.95;2.28;;;16.50;58.60;;;;;;5051618;28;20182;-72
2023/01/03 07:47:10;;;;;;;1.90;1.80;;;16.50;58.30;;;;;;5052683;28;20171;-71
2023/01/03 07:49:35;;;;;;;2.47;2.28;;;16.50;58.40;;;;;;5052239;28;20208;-70
2023/01/03 07:52:01;;;;;;;3.25;2.20;;;16.50;58.40;;;;;;5051976;28;20211;-72
2023/01/03 07:54:26;;;;;;;2.55;2.35;;;16.50;58.30;;;;;;5052585;28;20175;-72
2023/01/03 07:56:52;;;;;;;2.50;2.30;;;16.50;58.20;;;;;;5052314;28;20179;-71
2023/01/03 07:59:17;;;;;;;2.40;2.20;;;16.50;58.10;;;;;;5051887;28;20172;-71
2023/01/03 08:01:43;;;;;;;3.03;2.25;;;16.50;58.30;;;;;;5052274;28;20630;-70
2023/01/03 08:04:08;;;;;;;2.50;2.30;;;16.50;58.20;;;;;;5052331;28;20167;-71
2023/01/03 08:06:34;;;;;;;2.58;2.38;;;16.50;58.30;;;;;;5051631;28;20577;-67
2023/01/03 08:14:28;;;;;;;2.45;2.25;;;16.50;58.00;;;;;;5051504;28;20284;-65
2023/01/03 08:16:54;;;;;;;3.70;2.45;;;16.50;58.10;;;;;;5051974;28;20641;-73
2023/01/03 08:19:19;;;;;;;2.88;2.58;;;16.50;58.50;;;;;;5052379;28;20183;-73
2023/01/03 08:21:45;;;;;;;3.60;2.50;;;16.50;58.10;;;;;;5051214;28;20193;-73
2023/01/03 08:24:11;;;;;;;2.70;2.50;;;16.40;58.00;;;;;;5052246;28;20229;-74
2023/01/03 08:26:36;;;;;;;2.88;2.67;;;16.40;58.40;;;;;;5051639;28;20167;-72
2023/01/03 08:29:02;;;;;;;3.22;2.50;;;16.40;58.40;;;;;;5051685;28;20190;-72
2023/01/03 08:31:28;;;;;;;2.65;2.45;;;16.40;58.50;;;;;;5052214;28;20210;-71
2023/01/03 08:33:55;;;;;;;2.53;2.20;;;16.40;58.40;;;;;;5054930;28;20179;-71
2023/01/03 08:36:21;;;;;;;2.45;2.25;;;16.40;58.60;;;;;;5054731;28;20179;-73
2023/01/03 08:38:49;;;;;;;2.65;2.45;;;16.40;58.20;;;;;;5054106;28;20171;-72
2023/01/03 08:41:15;;;;;;;3.03;2.63;;;16.40;58.20;;;;;;5053789;28;20183;-73
2023/01/03 08:43:41;;;;;;;3.08;2.78;;;16.50;58.30;;;;;;5037472;28;20174;-73
2023/01/03 08:46:07;;;;;;;2.42;2.17;;;16.50;58.10;;;;;;5038059;28;20630;-72
2023/01/03 08:48:32;;;;;;;2.92;2.42;;;16.50;58.60;;;;;;5036872;28;20171;-72
2023/01/03 08:50:58;;;;;;;3.80;3.42;;;16.50;58.00;;;;;;5054270;28;20424;-72
2023/01/03 08:53:23;;;;;;;3.10;2.20;;;16.50;58.00;;;;;;5054239;28;20164;-73
2023/01/03 08:55:49;;;;;;;2.95;2.70;;;16.50;58.00;;;;;;5053190;28;20175;-73
2023/01/03 08:58:14;;;;;;;2.88;2.55;;;16.40;57.90;;;;;;5055224;28;20625;-73
2023/01/03 09:00:40;;;;;;;5.03;2.80;;;16.40;58.00;;;;;;5055252;28;20183;-72
2023/01/03 09:03:06;;;;;;;2.83;2.42;;;16.40;57.90;;;;;;5054734;28;20202;-70
2023/01/03 09:05:31;;;;;;;2.20;2.08;;;16.40;58.10;;;;;;5055011;28;20257;-68
2023/01/03 09:07:57;;;;;;;4.43;2.35;;;16.40;58.00;;;;;;5055244;28;20175;-74
2023/01/03 09:10:22;;;;;;;2.85;2.50;;;16.50;58.30;;;;;;5054204;28;20687;-73
2023/01/03 09:12:48;;;;;;;2.50;2.28;;;16.50;58.00;;;;;;5054711;28;20182;-74
2023/01/03 09:15:13;;;;;;;4.03;2.88;;;16.50;57.90;;;;;;5055014;28;20167;-69
2023/01/03 09:17:43;;;;;;;2.70;2.28;;;16.50;57.80;;;;;;5053934;28;20255;-68
2023/01/03 09:20:09;;;;;;;3.17;2.53;;;16.50;57.80;;;;;;5055121;28;20250;-66
2023/01/03 09:22:35;;;;;;;3.65;2.30;;;16.50;58.00;;;;;;5054594;28;20172;-65
2023/01/03 09:25:00;;;;;;;4.30;2.55;;;16.60;57.80;;;;;;5054098;28;20591;-70
2023/01/03 09:27:26;;;;;;;2.50;2.30;;;16.50;57.90;;;;;;5054706;28;20643;-70
2023/01/03 09:29:52;;;;;;;3.95;2.50;;;16.50;58.10;;;;;;5054546;28;20185;-69
2023/01/03 09:32:17;;;;;;;3.53;2.25;;;16.50;58.00;;;;;;5054294;28;20526;-69
2023/01/03 09:34:43;;;;;;;2.97;2.22;;;16.60;58.10;;;;;;5054451;28;20176;-71
2023/01/03 09:37:08;;;;;;;3.00;2.10;;;16.60;58.20;;;;;;5053967;28;20265;-72
2023/01/03 09:39:34;;;;;;;3.55;2.63;;;16.60;58.20;;;;;;5054265;28;20265;-71
2023/01/03 09:44:43;;;;;;;3.75;1.90;;;16.70;58.10;;;;;;5053200;28;20178;-73
2023/01/03 09:47:23;;;;;;;2.47;2.28;;;16.80;58.10;;;;;;5054641;28;20171;-66
2023/01/03 09:49:50;;;;;;;2.70;2.50;;;16.80;58.20;;;;;;5038001;28;20181;-73
2023/01/03 10:03:42;;;;;;;2.13;1.67;;;16.70;58.20;;;;;;5053127;28;20598;-70
2023/01/03 10:06:30;;;;;;;1.90;1.80;;;16.80;58.20;;;;;;5053354;28;20577;-73
2023/01/03 10:09:24;;;;;;;2.33;1.77;;;16.80;58.00;;;;;;5053952;28;20174;-73
2023/01/03 10:12:29;;;;;;;2.45;1.80;;;16.80;58.00;;;;;;5053862;28;20621;-74
2023/01/03 10:15:14;;;;;;;2.97;1.83;;;16.80;58.00;;;;;;5053685;28;20183;-72
2023/01/03 10:18:17;;;;;;;2.58;1.80;;;16.80;58.10;;;;;;5037209;28;20623;-73
2023/01/03 10:20:52;;;;;;;2.72;2.15;;;16.80;58.20;;;;;;5052633;28;20209;-73
2023/01/03 10:23:17;;;;;;;2.05;1.85;;;16.80;58.20;;;;;;5051986;28;20248;-73
2023/01/03 10:25:44;;;;;;;2.72;1.95;;;16.80;58.30;;;;;;5051935;28;20704;-73
2023/01/03 10:28:15;;;;;;;2.00;1.77;;;16.70;58.30;;;;;;5052795;28;20529;-73
2023/01/03 10:30:55;;;;;;;2.95;1.70;;;16.70;58.40;;;;;;5051809;28;20203;-72
2023/01/03 10:33:32;;;;;;;2.22;2.03;;;16.70;58.40;;;;;;5051611;28;20216;-72
2023/01/03 10:35:57;;;;;;;2.08;1.85;;;16.70;58.40;;;;;;5052914;28;20233;-73
2023/01/03 10:38:24;;;;;;;2.63;2.13;;;16.70;58.40;;;;;;5052207;28;20180;-73
2023/01/03 10:40:52;;;;;;;2.88;1.80;;;16.70;58.40;;;;;;5051428;28;20657;-73
2023/01/03 10:43:31;;;;;;;3.20;2.03;;;16.70;58.40;;;;;;5051383;28;20680;-73
2023/01/03 10:46:00;;;;;;;3.00;2.10;;;16.70;58.40;;;;;;5049860;28;20676;-72
2023/01/03 10:48:35;;;;;;;3.25;1.90;;;16.70;58.30;;;;;;5049401;28;20171;-72
2023/01/03 10:51:20;;;;;;;2.83;1.58;;;16.60;58.30;;;;;;5053047;28;20222;-73
2023/01/03 10:53:45;;;;;;;2.63;1.83;;;16.60;58.40;;;;;;5051588;28;20171;-73
2023/01/03 10:56:13;;;;;;;3.30;2.08;;;16.60;58.40;;;;;;5051997;28;20171;-72
2023/01/03 10:58:39;;;;;;;2.30;2.00;;;16.60;58.10;;;;;;5051584;28;20184;-72
2023/01/03 11:01:22;;;;;;;3.88;1.95;;;16.60;58.10;;;;;;5051794;28;20266;-71
2023/01/03 11:04:23;;;;;;;2.63;1.80;;;16.60;58.50;;;;;;5052777;28;20224;-73
2023/01/03 11:07:12;;;;;;;1.67;1.58;;;16.70;58.40;;;;;;5052579;28;20217;-72
2023/01/03 11:09:54;;;;;;;3.08;1.73;;;16.80;58.20;;;;;;5051981;28;20175;-70
2023/01/03 11:12:35;;;;;;;2.63;1.90;;;16.80;58.20;;;;;;5051656;28;20672;-69
2023/01/03 11:15:14;;;;;;;3.50;1.92;;;16.80;58.80;;;;;;5052931;28;20182;-75
2023/01/03 11:18:03;;;;;;;2.35;1.50;;;16.80;58.40;;;;;;5051768;28;20226;-73
2023/01/03 11:20:40;;;;;;;7.53;2.35;;;16.80;58.20;;;;;;5052814;28;20687;-72
2023/01/03 11:23:29;;;;;;;1.70;1.58;;;16.70;58.20;;;;;;5050910;28;20633;-66
2023/01/03 11:26:13;;;;;;;2.47;2.28;;;16.70;58.30;;;;;;5051616;28;20218;-65
2023/01/03 11:28:57;;;;;;;5.57;1.85;;;16.70;58.30;;;;;;5052375;28;20644;-64
2023/01/03 11:31:35;;;;;;;2.75;1.83;;;16.70;58.10;;;;;;5052705;28;20217;-67
2023/01/03 11:34:41;;;;;;;2.97;1.67;;;16.70;58.40;;;;;;5051475;28;20186;-71
2023/01/03 11:37:29;;;;;;;4.20;2.05;;;16.60;58.40;;;;;;5029914;28;20221;-71
2023/01/03 11:40:25;;;;;;;2.33;2.05;;;16.70;58.40;;;;;;5049171;28;20202;-72
2023/01/03 11:43:36;;;;;;;3.33;1.67;;;16.70;58.30;;;;;;5052379;28;20256;-72
2023/01/03 11:46:12;;;;;;;2.45;1.65;;;16.70;58.20;;;;;;5042386;28;20214;-71
2023/01/03 11:48:40;;;;;;;2.15;1.63;;;16.70;58.20;;;;;;5051296;28;20206;-71
2023/01/03 11:51:33;;;;;;;4.85;1.85;;;16.70;58.20;;;;;;5051726;28;20684;-72
2023/01/03 11:54:04;;;;;;;2.67;1.80;;;16.70;58.30;;;;;;5051349;28;20580;-73
2023/01/03 11:56:39;;;;;;;2.20;1.70;;;16.70;58.40;;;;;;5052544;28;20175;-73
2023/01/03 11:59:34;;;;;;;3.97;1.80;;;16.70;58.40;;;;;;5050443;28;20221;-73
2023/01/03 12:02:17;;;;;;;3.55;2.13;;;16.70;58.40;;;;;;5051181;28;20539;-70
2023/01/03 12:05:02;;;;;;;2.33;1.75;;;16.70;58.50;;;;;;5050339;28;20178;-70
2023/01/03 12:07:52;;;;;;;1.58;1.48;;;16.80;58.40;;;;;;5054589;28;20213;-64
2023/01/03 12:10:50;;;;;;;2.53;1.70;;;16.70;58.40;;;;;;5056342;28;20252;-73
2023/01/03 12:13:47;;;;;;;3.53;1.70;;;16.80;58.40;;;;;;5047884;28;20191;-74
2023/01/03 12:16:22;;;;;;;2.15;1.95;;;16.70;58.40;;;;;;5047538;28;20221;-75
2023/01/03 12:18:57;;;;;;;4.07;1.65;;;16.70;58.50;;;;;;5053807;28;20226;-74
2023/01/03 12:21:33;;;;;;;4.13;1.50;;;16.70;58.50;;;;;;5054763;28;20836;-73
2023/01/03 12:24:32;;;;;;;2.10;1.80;;;16.70;58.70;;;;;;5054834;28;20256;-76
2023/01/03 12:27:09;;;;;;;1.80;1.50;;;16.70;58.70;;;;;;5055339;28;20179;-76
2023/01/03 12:30:11;;;;;;;3.55;1.60;;;16.70;58.70;;;;;;5055601;28;20605;-74
2023/01/03 12:32:43;;;;;;;1.65;1.40;;;16.70;58.70;;;;;;5055481;28;20286;-74
2023/01/03 12:35:32;;;;;;;3.05;1.52;;;16.70;58.50;;;;;;5053863;28;20190;-74
2023/01/03 12:37:58;;;;;;;2.33;1.60;;;16.80;58.50;;;;;;5054729;28;20182;-74
2023/01/03 12:40:41;;;;;;;2.80;1.52;;;16.70;58.30;;;;;;5055084;28;20175;-75
2023/01/03 12:43:19;;;;;;;2.58;1.60;;;16.80;58.30;;;;;;5055620;28;20561;-68
2023/01/03 12:46:06;;;;;;;2.58;1.60;;;16.80;58.40;;;;;;5053942;28;20182;-68
2023/01/03 12:48:56;;;;;;;2.92;1.73;;;16.80;58.40;;;;;;5054719;28;20183;-68
2023/01/03 12:51:23;;;;;;;2.47;1.60;;;16.70;58.40;;;;;;5055435;28;20285;-69
2023/01/03 12:54:14;;;;;;;3.60;1.52;;;16.70;58.40;;;;;;5054124;28;20179;-68
2023/01/03 12:56:46;;;;;;;1.73;1.50;;;16.60;58.30;;;;;;5054225;28;20229;-68
2023/01/03 12:59:30;;;;;;;3.13;1.50;;;16.60;58.30;;;;;;5055279;28;20175;-68
2023/01/03 13:02:00;;;;;;;2.33;2.03;;;16.60;58.40;;;;;;5054608;28;20258;-70
2023/01/03 13:04:33;;;;;;;1.75;1.58;;;16.60;58.40;;;;;;5054275;28;20175;-69
2023/01/03 13:07:01;;;;;;;4.32;1.92;;;16.60;58.50;;;;;;5055412;28;20179;-68
2023/01/03 13:09:30;;;;;;;1.75;1.65;;;16.60;58.40;;;;;;5053323;28;20209;-70
2023/01/03 13:12:04;;;;;;;1.70;1.50;;;16.60;58.30;;;;;;5054107;28;20294;-68
2023/01/03 13:14:39;;;;;;;2.28;1.50;;;16.60;58.30;;;;;;5053754;28;20254;-70
2023/01/03 13:17:11;;;;;;;2.95;1.52;;;16.60;58.30;;;;;;5052890;28;20189;-69
2023/01/03 13:20:06;;;;;;;3.03;1.63;;;16.60;58.30;;;;;;5053181;28;20187;-70
2023/01/03 13:22:51;;;;;;;3.00;1.48;;;16.60;58.40;;;;;;5052928;28;20237;-70
2023/01/03 13:25:25;;;;;;;1.38;1.27;;;16.50;58.30;;;;;;5053890;28;20266;-70
2023/01/03 13:27:51;;;;;;;1.88;1.67;;;16.50;58.40;;;;;;5054724;28;20183;-69
2023/01/03 13:30:35;;;;;;;1.45;1.17;;;16.50;58.30;;;;;;5053886;28;20207;-69
2023/01/03 13:33:10;;;;;;;3.13;1.45;;;16.60;58.90;;;;;;5055090;28;20194;-69
2023/01/03 13:35:45;;;;;;;2.05;1.77;;;16.60;58.30;;;;;;5054438;28;20171;-69
2023/01/03 13:38:28;;;;;;;1.52;1.42;;;16.70;58.40;;;;;;5052991;28;20175;-70
2023/01/03 13:40:59;;;;;;;2.38;1.40;;;16.70;58.20;;;;;;5053329;28;20262;-68
2023/01/03 13:43:30;;;;;;;1.48;1.38;;;16.80;58.20;;;;;;5052831;28;20640;-69
2023/01/03 13:45:56;;;;;;;2.28;1.30;;;16.80;58.10;;;;;;5053541;28;20259;-68
2023/01/03 13:48:28;;;;;;;1.48;1.27;;;16.80;58.00;;;;;;5053362;28;20171;-68
2023/01/03 13:51:15;;;;;;;3.55;1.55;;;16.90;58.00;;;;;;5053241;28;20738;-68
2023/01/03 13:53:59;;;;;;;1.20;1.10;;;16.90;57.80;;;;;;5054105;28;20175;-68
2023/01/03 13:56:48;;;;;;;2.70;1.27;;;17.00;57.70;;;;;;5054191;28;20182;-69
2023/01/03 13:59:13;;;;;;;1.63;1.17;;;17.10;57.70;;;;;;5049807;28;20187;-69
2023/01/03 14:01:55;;;;;;;2.00;1.30;;;17.10;57.60;;;;;;5053879;28;20167;-68
2023/01/03 14:04:52;;;;;;;2.67;1.50;;;17.20;57.50;;;;;;5052052;28;20262;-70
2023/01/03 14:07:55;;;;;;;1.98;1.20;;;17.30;57.30;;;;;;5054378;28;20175;-69
2023/01/03 14:10:47;;;;;;;1.80;1.17;;;17.30;57.10;;;;;;5053923;28;20198;-70
2023/01/03 14:13:38;;;;;;;2.17;1.17;;;17.40;57.00;;;;;;5053515;28;20175;-70
2023/01/03 14:16:27;;;;;;;2.22;1.00;;;17.40;56.80;;;;;;5054044;28;20182;-71